Time,TemperatureF,DewpointF,PressureIn,WindDirection,WindDirectionDegrees,WindSpeedMPH,WindSpeedGustMPH,Humidity,HourlyPrecipIn,Conditions,Clouds,dailyrainin,SoftwareType,DateUTC
2013-08-12 03:00:00,56.0,-99.9,29.97,SW,230,12.0,-999.0,-999,-99.99,,,-99.99,,2013-08-12 07:00:00,
2013-08-12 03:43:00,56.0,-99.9,29.97,SW,230,12.0,-999.0,-999,-99.99,,,-99.99,,2013-08-12 07:43:00,
2013-08-12 03:53:00,56.0,-99.9,29.97,SW,230,12.0,-999.0,-999,-99.99,,,-99.99,,2013-08-12 07:53:00,
2013-08-12 04:00:00,56.0,-99.9,29.96,WSW,240,14.0,-999.0,-999,-99.99,,,-99.99,,2013-08-12 08:00:00,
2013-08-12 04:43:00,56.0,-99.9,29.96,WSW,240,14.0,-999.0,-999,-99.99,,,-99.99,,2013-08-12 08:43:00,
2013-08-12 04:53:00,56.0,-99.9,29.96,WSW,240,14.0,-999.0,-999,-99.99,,,-99.99,,2013-08-12 08:53:00,
2013-08-12 05:00:00,57.0,-99.9,29.94,WSW,250,15.0,-999.0,-999,-99.99,,,-99.99,,2013-08-12 09:00:00,
2013-08-12 05:32:00,57.0,-99.9,29.94,WSW,250,15.0,-999.0,-999,-99.99,,,-99.99,,2013-08-12 09:32:00,
2013-08-12 05:43:00,57.0,-99.9,29.94,WSW,250,15.0,-999.0,-999,-99.99,,,-99.99,,2013-08-12 09:43:00,
2013-08-12 05:53:00,57.0,-99.9,29.94,WSW,250,15.0,-999.0,-999,-99.99,,,-99.99,,2013-08-12 09:53:00,
2013-08-12 06:00:00,56.0,-99.9,29.94,West,280,9.0,-999.0,-999,-99.99,,,-99.99,,2013-08-12 10:00:00,
2013-08-12 06:32:00,56.0,-99.9,29.94,West,280,9.0,-999.0,-999,-99.99,,,-99.99,,2013-08-12 10:32:00,
2013-08-12 06:43:00,56.0,-99.9,29.94,West,280,9.0,-999.0,-999,-99.99,,,-99.99,,2013-08-12 10:43:00,
2013-08-12 06:52:00,56.0,-99.9,29.94,West,280,9.0,-999.0,-999,-99.99,,,-99.99,,2013-08-12 10:52:00,
2013-08-12 14:00:00,61.0,-99.9,29.89,NNW,340,8.0,-999.0,-999,-99.99,,,-99.99,,2013-08-12 18:00:00,
2013-08-12 14:43:00,61.0,-99.9,29.89,NNW,340,8.0,-999.0,-999,-99.99,,,-99.99,,2013-08-12 18:43:00,
2013-08-12 14:52:00,61.0,-99.9,29.89,NNW,340,8.0,-999.0,-999,-99.99,,,-99.99,,2013-08-12 18:52:00,
2013-08-12 15:00:00,62.0,-99.9,29.88,NE,40,3.0,-999.0,-999,-99.99,,,-99.99,,2013-08-12 19:00:00,
2013-08-12 15:43:00,62.0,-99.9,29.88,NE,40,3.0,-999.0,-999,-99.99,,,-99.99,,2013-08-12 19:43:00,
2013-08-12 15:52:00,62.0,-99.9,29.88,NE,40,3.0,-999.0,-999,-99.99,,,-99.99,,2013-08-12 19:52:00,
2013-08-12 17:00:00,65.0,-99.9,29.88,WNW,290,15.0,-999.0,-999,-99.99,,,-99.99,,2013-08-12 21:00:00,
2013-08-12 17:43:00,65.0,-99.9,29.88,WNW,290,15.0,-999.0,-999,-99.99,,,-99.99,,2013-08-12 21:43:00,
2013-08-12 17:52:00,65.0,-99.9,29.88,WNW,290,15.0,-999.0,-999,-99.99,,,-99.99,,2013-08-12 21:52:00,
2013-08-12 18:00:00,67.0,-99.9,29.87,West,280,16.0,-999.0,-999,-99.99,,,-99.99,,2013-08-12 22:00:00,
2013-08-12 18:32:00,67.0,-99.9,29.87,West,280,16.0,-999.0,-999,-99.99,,,-99.99,,2013-08-12 22:32:00,
2013-08-12 18:43:00,67.0,-99.9,29.87,West,280,16.0,-999.0,-999,-99.99,,,-99.99,,2013-08-12 22:43:00,
2013-08-12 18:53:00,67.0,-99.9,29.87,West,280,16.0,-999.0,-999,-99.99,,,-99.99,,2013-08-12 22:53:00,
2013-08-12 19:00:00,64.0,-99.9,29.88,WNW,300,7.0,-999.0,-999,-99.99,,,-99.99,,2013-08-12 23:00:00,
2013-08-12 19:44:00,64.0,-99.9,29.88,WNW,300,7.0,-999.0,-999,-99.99,,,-99.99,,2013-08-12 23:44:00,
2013-08-12 19:54:00,64.0,-99.9,29.88,WNW,300,7.0,-999.0,-999,-99.99,,,-99.99,,2013-08-12 23:54:00,